createdAt,value
2022-09-30T00:01:27.206Z,97091.03
2022-09-30T00:03:56.567Z,97081.19
2022-09-30T00:06:25.022Z,97077.28
2022-09-30T00:08:51.593Z,97073.94
2022-09-30T00:11:20.950Z,97069.06
2022-09-30T00:13:48.875Z,97079.94
2022-09-30T00:16:16.520Z,97081.31
2022-09-30T00:18:44.314Z,97070.06
2022-09-30T00:21:13.114Z,97082.13
2022-09-30T00:23:40.260Z,97083.06
2022-09-30T00:26:11.950Z,97089.03
2022-09-30T00:28:39.654Z,97083.84
2022-09-30T00:31:09.720Z,97078.16
2022-09-30T00:33:36.574Z,97077.22
2022-09-30T00:36:04.197Z,97088.06
2022-09-30T00:38:31.008Z,97084.41
2022-09-30T00:40:59.700Z,97097.63
2022-09-30T00:43:45.611Z,97100.06
2022-09-30T00:46:31.993Z,97099.53
2022-09-30T00:49:03.615Z,97087.97
2022-09-30T00:51:36.626Z,97098.56
2022-09-30T00:54:10.332Z,97099.50
2022-09-30T00:56:46.059Z,97124.94
2022-09-30T00:59:19.507Z,97120.19
2022-09-30T01:01:46.180Z,97120.66
2022-09-30T01:04:20.759Z,97133.75
2022-09-30T01:06:47.883Z,97135.97
2022-09-30T01:09:14.909Z,97143.56
2022-09-30T01:11:41.750Z,97139.22
2022-09-30T01:14:17.597Z,97149.09
2022-09-30T01:16:47.147Z,97154.09
2022-09-30T01:19:40.999Z,97155.03
2022-09-30T01:22:42.302Z,97158.16
2022-09-30T01:25:30.581Z,97152.91
2022-09-30T01:27:57.104Z,97158.34
2022-09-30T01:30:36.310Z,97158.66
2022-09-30T01:33:20.949Z,97162.34
2022-09-30T01:36:00.990Z,97162.97
2022-09-30T01:38:30.966Z,97168.78
2022-09-30T01:41:03.236Z,97170.84
2022-09-30T01:43:48.006Z,97175.19
2022-09-30T01:46:19.624Z,97175.63
2022-09-30T01:49:01.459Z,97178.84
2022-09-30T01:51:40.798Z,97179.94
2022-09-30T01:54:16.529Z,97171.41
2022-09-30T01:56:49.686Z,97178.19
2022-09-30T01:59:32.436Z,97174.25
2022-09-30T02:02:06.793Z,97179.38
2022-09-30T02:04:40.430Z,97175.03
2022-09-30T02:07:14.104Z,97183.06
2022-09-30T02:09:51.004Z,97187.53
2022-09-30T02:12:22.985Z,97183.06
2022-09-30T02:14:57.531Z,97185.66
2022-09-30T02:17:33.828Z,97180.41
2022-09-30T02:20:07.170Z,97182.75
2022-09-30T02:22:46.580Z,97197.19
2022-09-30T02:25:20.434Z,97196.56
2022-09-30T02:27:56.555Z,97198.75
2022-09-30T02:30:23.419Z,97198.22
2022-09-30T02:32:55.882Z,97200.53
2022-09-30T02:35:52.657Z,97194.56
2022-09-30T02:38:23.120Z,97201.22
2022-09-30T02:41:02.398Z,97189.44
2022-09-30T02:43:30.247Z,97195.94
2022-09-30T02:46:21.563Z,97196.78
2022-09-30T02:48:53.828Z,97191.50
2022-09-30T02:51:39.085Z,97182.97
2022-09-30T02:54:30.391Z,97193.53
2022-09-30T02:57:08.804Z,97188.75
2022-09-30T02:59:35.470Z,97194.09
2022-09-30T03:02:02.085Z,97187.16
2022-09-30T03:04:33.961Z,97171.84
2022-09-30T03:07:01.209Z,97185.56
2022-09-30T03:09:28.309Z,97182.75
2022-09-30T03:12:17.025Z,97188.13
2022-09-30T03:15:08.361Z,97201.00
2022-09-30T03:17:50.950Z,97192.81
2022-09-30T03:20:31.126Z,97192.13
2022-09-30T03:23:09.478Z,97189.13
2022-09-30T03:26:03.638Z,97197.09
2022-09-30T03:28:49.822Z,97199.00
2022-09-30T03:31:25.003Z,97194.47
2022-09-30T03:33:57.700Z,97210.72
2022-09-30T03:37:04.260Z,97218.72
2022-09-30T03:39:47.022Z,97229.59
2022-09-30T03:42:27.372Z,97233.66
2022-09-30T03:45:29.524Z,97236.38
2022-09-30T03:48:01.496Z,97251.81
2022-09-30T03:50:31.288Z,97259.41
2022-09-30T03:52:58.085Z,97270.88
2022-09-30T03:55:25.688Z,97265.34
2022-09-30T03:57:53.551Z,97280.53
2022-09-30T04:00:20.511Z,97279.81
2022-09-30T04:02:47.046Z,97277.66
2022-09-30T04:05:13.678Z,97289.09
2022-09-30T04:07:40.476Z,97292.34
2022-09-30T04:10:07.613Z,97302.53
2022-09-30T04:12:34.234Z,97299.69
2022-09-30T04:15:00.801Z,97301.91
2022-09-30T04:17:27.330Z,97303.78
2022-09-30T04:19:54.066Z,97298.94
2022-09-30T04:22:23.205Z,97313.22
2022-09-30T04:24:52.816Z,97306.28
2022-09-30T04:27:19.370Z,97308.75
2022-09-30T04:29:45.908Z,97302.66
2022-09-30T04:32:12.389Z,97315.47
2022-09-30T04:34:39.006Z,97309.25
2022-09-30T04:37:10.615Z,97315.47
2022-09-30T04:39:37.578Z,97317.91
2022-09-30T04:42:04.274Z,97313.28
2022-09-30T04:44:30.814Z,97333.50
2022-09-30T04:46:57.289Z,97336.19
2022-09-30T04:49:24.491Z,97346.50
2022-09-30T04:51:51.056Z,97354.47
2022-09-30T04:54:17.886Z,97366.63
2022-09-30T04:56:44.400Z,97365.69
2022-09-30T04:59:11.252Z,97375.06
2022-09-30T05:01:39.271Z,97365.25
2022-09-30T05:04:06.195Z,97367.59
2022-09-30T05:06:32.707Z,97378.50
2022-09-30T05:08:59.298Z,97380.53
2022-09-30T05:11:26.448Z,97385.97
2022-09-30T05:13:53.035Z,97393.56
2022-09-30T05:16:19.622Z,97401.63
2022-09-30T05:18:46.919Z,97407.47
2022-09-30T05:21:20.476Z,97417.41
2022-09-30T05:23:47.976Z,97423.63
2022-09-30T05:26:14.990Z,97420.91
2022-09-30T05:28:42.559Z,97420.22
2022-09-30T05:31:09.536Z,97408.28
2022-09-30T05:33:36.595Z,97415.56
2022-09-30T05:36:06.402Z,97420.16
2022-09-30T05:38:33.760Z,97427.88
2022-09-30T05:41:11.274Z,97436.06
2022-09-30T05:43:43.856Z,97445.94
2022-09-30T05:46:10.482Z,97444.16
2022-09-30T05:48:37.122Z,97448.38
2022-09-30T05:51:04.109Z,97452.25
2022-09-30T05:53:34.395Z,97447.00
2022-09-30T05:56:01.246Z,97449.44
2022-09-30T05:58:28.176Z,97452.47
2022-09-30T06:00:54.951Z,97453.75
2022-09-30T06:03:21.656Z,97457.13
2022-09-30T06:05:48.544Z,97464.16
2022-09-30T06:08:16.112Z,97463.91
2022-09-30T06:10:44.636Z,97471.53
2022-09-30T06:13:11.738Z,97486.13
2022-09-30T06:15:39.684Z,97485.91
2022-09-30T06:18:06.358Z,97482.50
2022-09-30T06:20:33.256Z,97481.44
2022-09-30T06:23:03.720Z,97492.69
2022-09-30T06:25:31.358Z,97478.88
2022-09-30T06:27:58.624Z,97492.47
2022-09-30T06:30:25.553Z,97491.50
2022-09-30T06:32:53.985Z,97484.81
2022-09-30T06:35:21.780Z,97492.09
2022-09-30T06:37:51.747Z,97497.22
2022-09-30T06:40:18.460Z,97492.69
2022-09-30T06:42:45.075Z,97504.25
2022-09-30T06:45:20.846Z,97506.94
2022-09-30T06:48:04.635Z,97497.59
2022-09-30T06:50:32.618Z,97506.81
2022-09-30T06:53:06.239Z,97513.25
2022-09-30T06:55:33.972Z,97522.13
2022-09-30T06:58:00.568Z,97528.53
2022-09-30T07:00:28.668Z,97518.31
2022-09-30T07:02:59.374Z,97532.41
2022-09-30T07:05:26.352Z,97534.84
2022-09-30T07:07:54.067Z,97533.22
2022-09-30T07:10:21.335Z,97531.81
2022-09-30T07:12:52.345Z,97532.75
2022-09-30T07:15:23.176Z,97532.41
2022-09-30T07:17:53.766Z,97545.03
2022-09-30T07:20:20.419Z,97548.91
2022-09-30T07:22:47.651Z,97557.06
2022-09-30T07:25:14.859Z,97538.50
2022-09-30T07:27:41.631Z,97551.59
2022-09-30T07:30:13.328Z,97554.38
2022-09-30T07:32:43.298Z,97568.47
2022-09-30T07:35:09.866Z,97567.16
2022-09-30T07:37:36.436Z,97571.13
2022-09-30T07:40:07.741Z,97572.63
2022-09-30T07:42:39.359Z,97580.97
2022-09-30T07:45:06.482Z,97585.75
2022-09-30T07:47:32.990Z,97590.53
2022-09-30T07:50:00.467Z,97602.34
2022-09-30T07:52:27.034Z,97611.72
2022-09-30T07:54:53.642Z,97604.94
2022-09-30T07:57:21.663Z,97603.75
2022-09-30T07:59:48.294Z,97601.31
2022-09-30T08:02:17.128Z,97602.13
2022-09-30T08:04:44.795Z,97610.44
2022-09-30T08:07:13.337Z,97605.28
2022-09-30T08:09:39.961Z,97618.03
2022-09-30T08:12:06.704Z,97606.81
2022-09-30T08:14:33.579Z,97618.97
2022-09-30T08:17:00.814Z,97615.09
2022-09-30T08:19:29.820Z,97615.69
2022-09-30T08:21:57.245Z,97614.88
2022-09-30T08:24:25.777Z,97626.56
2022-09-30T08:26:53.124Z,97623.06
2022-09-30T08:29:35.760Z,97619.44
2022-09-30T08:32:07.118Z,97628.22
2022-09-30T08:34:35.813Z,97644.94
2022-09-30T08:37:08.695Z,97639.91
2022-09-30T08:39:37.650Z,97641.44
2022-09-30T08:42:36.146Z,97647.16
2022-09-30T08:45:18.070Z,97645.31
2022-09-30T08:47:57.451Z,97645.75
2022-09-30T08:50:33.331Z,97651.50
2022-09-30T08:53:05.600Z,97653.03
2022-09-30T08:55:44.477Z,97666.16
2022-09-30T08:58:44.335Z,97665.44
2022-09-30T09:01:33.854Z,97679.16
2022-09-30T09:04:02.113Z,97684.63
2022-09-30T09:06:47.827Z,97686.97
2022-09-30T09:09:34.321Z,97687.91
2022-09-30T09:12:07.103Z,97700.31
2022-09-30T09:14:53.112Z,97697.25
2022-09-30T09:17:25.853Z,97699.50
2022-09-30T09:20:30.667Z,97704.53
2022-09-30T09:22:57.357Z,97709.94
2022-09-30T09:25:28.116Z,97719.75
2022-09-30T09:27:58.957Z,97728.28
2022-09-30T09:30:36.237Z,97727.72
2022-09-30T09:33:19.154Z,97737.78
2022-09-30T09:35:57.422Z,97745.16
2022-09-30T09:38:31.760Z,97745.06
2022-09-30T09:41:10.231Z,97744.34
2022-09-30T09:44:21.355Z,97752.06
2022-09-30T09:46:51.087Z,97755.25
2022-09-30T09:49:21.107Z,97759.13
2022-09-30T09:52:05.758Z,97762.78
2022-09-30T09:54:37.937Z,97757.50
2022-09-30T09:57:09.465Z,97752.47
2022-09-30T09:59:37.089Z,97769.91
2022-09-30T10:02:21.537Z,97776.47
2022-09-30T10:04:51.041Z,97791.69
2022-09-30T10:07:20.239Z,97784.75
2022-09-30T10:09:46.903Z,97785.97
2022-09-30T10:12:13.333Z,97788.31
2022-09-30T10:14:48.146Z,97788.63
2022-09-30T10:17:26.195Z,97790.03
2022-09-30T10:20:06.237Z,97781.25
2022-09-30T10:22:34.685Z,97781.25
2022-09-30T10:25:16.482Z,97777.88
2022-09-30T10:27:54.708Z,97795.00
2022-09-30T10:30:59.264Z,97788.44
2022-09-30T10:33:29.726Z,97801.63
2022-09-30T10:36:00.606Z,97801.75
2022-09-30T10:38:29.715Z,97808.78
2022-09-30T10:40:56.896Z,97807.03
2022-09-30T10:43:36.542Z,97815.78
2022-09-30T10:48:54.356Z,97819.22
2022-09-30T10:51:37.818Z,97816.03
2022-09-30T10:54:06.041Z,97825.06
2022-09-30T10:56:44.789Z,97816.75
2022-09-30T10:59:39.345Z,97814.88
2022-09-30T11:02:27.329Z,97821.78
2022-09-30T11:05:07.372Z,97820.03
2022-09-30T11:07:43.139Z,97819.34
2022-09-30T11:10:47.471Z,97823.38
2022-09-30T11:13:37.545Z,97823.38
2022-09-30T11:16:30.050Z,97826.78
2022-09-30T11:19:32.080Z,97826.56
2022-09-30T11:22:33.961Z,97825.00
2022-09-30T11:25:00.636Z,97834.84
2022-09-30T11:27:30.376Z,97831.69
2022-09-30T11:30:16.787Z,97832.94
2022-09-30T11:32:54.929Z,97832.47
2022-09-30T11:35:43.896Z,97842.91
2022-09-30T11:38:28.418Z,97832.72
2022-09-30T11:41:20.508Z,97839.41
2022-09-30T11:43:56.410Z,97833.91
2022-09-30T11:46:43.417Z,97833.09
2022-09-30T11:49:22.329Z,97828.06
2022-09-30T11:52:19.461Z,97839.28
2022-09-30T11:54:57.774Z,97836.72
2022-09-30T11:57:30.575Z,97845.84
2022-09-30T12:00:02.531Z,97851.00
2022-09-30T12:02:46.638Z,97851.22
2022-09-30T12:05:37.566Z,97850.19
2022-09-30T12:08:29.461Z,97846.66
2022-09-30T12:11:18.672Z,97847.84
2022-09-30T12:13:53.506Z,97849.00
2022-09-30T12:16:24.496Z,97848.66
2022-09-30T12:19:02.010Z,97851.34
2022-09-30T12:21:48.777Z,97856.38
2022-09-30T12:24:37.995Z,97853.69
2022-09-30T12:27:14.833Z,97846.91
2022-09-30T12:30:09.121Z,97847.75
2022-09-30T12:33:02.183Z,97848.31
2022-09-30T12:35:38.146Z,97842.03
2022-09-30T12:38:19.007Z,97852.66
2022-09-30T12:40:52.103Z,97848.09
2022-09-30T12:44:00.571Z,97853.47
2022-09-30T12:46:39.473Z,97847.19
2022-09-30T12:49:14.822Z,97850.44
2022-09-30T12:51:45.657Z,97848.00
2022-09-30T12:54:22.003Z,97855.84
2022-09-30T12:56:56.113Z,97855.59
2022-09-30T12:59:29.802Z,97859.94
2022-09-30T13:01:58.493Z,97864.75
2022-09-30T13:04:33.224Z,97865.72
2022-09-30T13:06:59.837Z,97854.25
2022-09-30T13:09:55.826Z,97852.81
2022-09-30T13:12:28.895Z,97856.09
2022-09-30T13:15:28.329Z,97872.38
2022-09-30T13:17:55.295Z,97874.25
2022-09-30T13:20:49.812Z,97885.72
2022-09-30T13:23:39.082Z,97888.06
2022-09-30T13:26:29.002Z,97887.81
2022-09-30T13:29:19.771Z,97885.03
2022-09-30T13:31:49.628Z,97894.38
2022-09-30T13:34:32.678Z,97896.97
2022-09-30T13:37:24.131Z,97893.47
2022-09-30T13:39:56.609Z,97887.16
2022-09-30T13:42:28.004Z,97895.56
2022-09-30T13:45:13.227Z,97897.44
2022-09-30T13:48:10.768Z,97892.16
2022-09-30T13:50:46.486Z,97889.34
2022-09-30T13:53:19.559Z,97896.84
2022-09-30T13:55:53.842Z,97902.59
2022-09-30T13:58:35.931Z,97900.47
2022-09-30T14:01:33.008Z,97907.66
2022-09-30T14:04:12.324Z,97902.13
2022-09-30T14:07:00.394Z,97907.91
2022-09-30T14:09:35.764Z,97914.28
2022-09-30T14:12:12.335Z,97916.31
2022-09-30T14:15:02.257Z,97910.13
2022-09-30T14:18:06.673Z,97923.13
2022-09-30T14:21:04.723Z,97910.81
2022-09-30T14:23:31.538Z,97910.81
2022-09-30T14:26:24.386Z,97908.44
2022-09-30T14:29:16.273Z,97915.25
2022-09-30T14:31:45.148Z,97919.47
2022-09-30T14:34:14.797Z,97922.63
2022-09-30T14:36:42.449Z,97922.75
2022-09-30T14:39:22.158Z,97923.00
2022-09-30T14:42:02.126Z,97911.28
2022-09-30T14:44:33.794Z,97907.91
2022-09-30T14:47:03.758Z,97912.00
2022-09-30T14:49:34.692Z,97908.31
2022-09-30T14:52:03.421Z,97918.63
2022-09-30T14:54:32.556Z,97918.38
2022-09-30T14:57:02.255Z,97920.44
2022-09-30T14:59:34.596Z,97923.81
2022-09-30T15:02:15.515Z,97933.19
2022-09-30T15:04:49.067Z,97922.09
2022-09-30T15:07:15.739Z,97919.09
2022-09-30T15:09:46.947Z,97923.31
2022-09-30T15:12:19.724Z,97920.50
2022-09-30T15:14:47.794Z,97927.31
2022-09-30T15:17:27.150Z,97929.66
2022-09-30T15:19:55.712Z,97924.50
2022-09-30T15:22:26.206Z,97931.31
2022-09-30T15:24:53.899Z,97930.31
2022-09-30T15:27:36.855Z,97933.84
2022-09-30T15:30:15.399Z,97942.69
2022-09-30T15:32:43.010Z,97947.22
2022-09-30T15:35:15.635Z,97943.34
2022-09-30T15:37:43.501Z,97943.56
2022-09-30T15:40:37.868Z,97946.66
2022-09-30T15:43:07.379Z,97945.22
2022-09-30T15:45:43.375Z,97958.81
2022-09-30T15:48:13.049Z,97966.88
2022-09-30T15:50:47.059Z,97973.06
2022-09-30T15:53:24.253Z,97969.38
2022-09-30T15:56:16.176Z,97967.44
2022-09-30T15:58:57.111Z,97970.47
2022-09-30T16:01:27.307Z,97976.25
2022-09-30T16:04:05.481Z,97973.56
2022-09-30T16:06:37.490Z,97977.06
2022-09-30T16:09:20.723Z,97992.22
2022-09-30T16:12:18.230Z,97988.28
2022-09-30T16:14:52.327Z,97989.34
2022-09-30T16:17:21.763Z,97989.25
2022-09-30T16:19:58.566Z,97991.47
2022-09-30T16:22:53.821Z,97991.13
2022-09-30T16:25:39.747Z,98000.00
2022-09-30T16:28:13.889Z,97998.59
2022-09-30T16:30:51.666Z,97996.56
2022-09-30T16:33:20.339Z,98003.31
2022-09-30T16:35:47.568Z,98017.41
2022-09-30T16:38:17.747Z,98022.88
2022-09-30T16:40:44.540Z,98027.69
2022-09-30T16:43:11.655Z,98018.78
2022-09-30T16:45:40.332Z,98026.06
2022-09-30T16:48:15.795Z,98027.81
2022-09-30T16:50:51.494Z,98026.81
2022-09-30T16:53:18.197Z,98038.63
2022-09-30T16:55:44.909Z,98044.63
2022-09-30T16:58:12.976Z,98046.88
2022-09-30T17:00:44.438Z,98050.59
2022-09-30T17:03:18.433Z,98057.72
2022-09-30T17:05:46.926Z,98062.94
2022-09-30T17:08:15.470Z,98060.88
2022-09-30T17:10:44.286Z,98072.00
2022-09-30T17:13:10.926Z,98077.16
2022-09-30T17:15:37.462Z,98078.59
2022-09-30T17:18:08.029Z,98078.59
2022-09-30T17:20:42.648Z,98081.59
2022-09-30T17:23:09.288Z,98074.88
2022-09-30T17:25:41.046Z,98077.56
2022-09-30T17:28:10.182Z,98091.09
2022-09-30T17:30:38.975Z,98093.69
2022-09-30T17:33:05.592Z,98089.44
2022-09-30T17:35:33.262Z,98076.75
2022-09-30T17:38:00.677Z,98087.75
2022-09-30T17:40:45.790Z,98094.28
2022-09-30T17:43:12.783Z,98094.28
2022-09-30T17:45:42.065Z,98096.84
2022-09-30T17:48:10.296Z,98101.41
2022-09-30T17:50:38.699Z,98097.06
2022-09-30T17:53:05.988Z,98108.59
2022-09-30T17:55:33.795Z,98099.66
2022-09-30T17:58:03.125Z,98105.72
2022-09-30T18:00:31.010Z,98107.38
2022-09-30T18:02:57.767Z,98105.72
2022-09-30T18:05:25.569Z,98116.09
2022-09-30T18:07:52.433Z,98112.94
2022-09-30T18:10:19.424Z,98114.78
2022-09-30T18:12:49.242Z,98109.84
2022-09-30T18:15:16.694Z,98108.81
2022-09-30T18:17:43.598Z,98110.34
2022-09-30T18:20:11.291Z,98116.97
2022-09-30T18:22:37.813Z,98120.44
2022-09-30T18:25:20.363Z,98100.06
2022-09-30T18:27:48.802Z,98113.63
2022-09-30T18:30:15.590Z,98111.72
2022-09-30T18:32:42.293Z,98116.44
2022-09-30T18:35:12.246Z,98111.81
2022-09-30T18:37:39.918Z,98112.41
2022-09-30T18:40:07.597Z,98111.28
2022-09-30T18:42:38.065Z,98114.41
2022-09-30T18:45:06.336Z,98109.19
2022-09-30T18:47:32.944Z,98113.38
2022-09-30T18:49:59.539Z,98116.28
2022-09-30T18:52:26.146Z,98118.75
2022-09-30T18:54:52.806Z,98121.22
2022-09-30T18:57:19.308Z,98113.00
2022-09-30T18:59:46.821Z,98118.03
2022-09-30T19:02:14.961Z,98119.56
2022-09-30T19:04:41.590Z,98119.16
2022-09-30T19:07:08.054Z,98121.72
2022-09-30T19:09:34.613Z,98111.31
2022-09-30T19:12:01.708Z,98114.41
2022-09-30T19:14:30.634Z,98112.19
2022-09-30T19:16:57.166Z,98113.22
2022-09-30T19:19:23.830Z,98101.41
2022-09-30T19:21:50.492Z,98105.63
2022-09-30T19:24:17.399Z,98107.28
2022-09-30T19:26:44.034Z,98097.69
2022-09-30T19:29:11.066Z,98094.28
2022-09-30T19:31:38.234Z,98104.38
2022-09-30T19:34:05.293Z,98109.03
2022-09-30T19:36:39.958Z,98111.16
2022-09-30T19:39:12.437Z,98113.03
2022-09-30T19:41:39.777Z,98116.88
2022-09-30T19:44:06.430Z,98125.31
2022-09-30T19:46:33.159Z,98130.66
2022-09-30T19:48:59.706Z,98130.88
2022-09-30T19:51:29.094Z,98122.94
2022-09-30T19:54:04.938Z,98119.56
2022-09-30T19:56:35.048Z,98127.16
2022-09-30T19:59:01.779Z,98127.09
2022-09-30T20:01:29.561Z,98145.94
2022-09-30T20:04:00.066Z,98147.38
2022-09-30T20:06:28.042Z,98142.22
2022-09-30T20:09:04.275Z,98132.72
2022-09-30T20:11:33.755Z,98130.56
2022-09-30T20:14:20.158Z,98126.44
2022-09-30T20:16:53.162Z,98124.63
2022-09-30T20:19:20.102Z,98124.69
2022-09-30T20:21:47.151Z,98116.06
2022-09-30T20:24:17.915Z,98128.44
2022-09-30T20:26:45.790Z,98135.47
2022-09-30T20:29:12.635Z,98131.53
2022-09-30T20:31:41.395Z,98140.59
2022-09-30T20:34:13.864Z,98141.41
2022-09-30T20:36:40.949Z,98155.03
2022-09-30T20:39:07.835Z,98157.06
2022-09-30T20:41:36.916Z,98159.34
2022-09-30T20:44:13.837Z,98165.53
2022-09-30T20:46:41.570Z,98159.53
2022-09-30T20:49:08.482Z,98160.69
2022-09-30T20:51:35.362Z,98163.31
2022-09-30T20:54:02.700Z,98163.31
2022-09-30T20:56:44.387Z,98169.81
2022-09-30T20:59:17.315Z,98194.25
2022-09-30T21:01:44.003Z,98194.53
2022-09-30T21:04:11.029Z,98192.91
2022-09-30T21:06:37.809Z,98191.25
2022-09-30T21:09:05.421Z,98195.38
2022-09-30T21:11:35.429Z,98199.47
2022-09-30T21:14:05.704Z,98204.56
2022-09-30T21:16:32.291Z,98192.28
2022-09-30T21:18:58.975Z,98207.94
2022-09-30T21:21:26.820Z,98202.69
2022-09-30T21:23:58.575Z,98210.09
2022-09-30T21:26:26.579Z,98218.13
2022-09-30T21:28:53.087Z,98218.84
2022-09-30T21:31:22.329Z,98214.53
2022-09-30T21:33:58.688Z,98221.34
2022-09-30T21:36:27.159Z,98228.97
2022-09-30T21:38:54.739Z,98219.91
2022-09-30T21:41:21.489Z,98228.97
2022-09-30T21:43:48.228Z,98225.75
2022-09-30T21:46:15.894Z,98229.25
2022-09-30T21:48:42.855Z,98230.00
2022-09-30T21:51:10.192Z,98229.25
2022-09-30T21:53:38.800Z,98234.28
2022-09-30T21:56:07.029Z,98230.91
2022-09-30T21:58:33.747Z,98231.81
2022-09-30T22:01:02.439Z,98234.22
2022-09-30T22:03:31.567Z,98229.16
2022-09-30T22:05:59.081Z,98226.56
2022-09-30T22:08:26.394Z,98221.03
2022-09-30T22:10:53.134Z,98228.44
2022-09-30T22:13:19.671Z,98231.81
2022-09-30T22:15:46.839Z,98228.34
2022-09-30T22:18:18.135Z,98230.81
2022-09-30T22:20:46.687Z,98235.03
2022-09-30T22:23:14.160Z,98228.13
2022-09-30T22:25:41.056Z,98238.63
2022-09-30T22:28:07.657Z,98241.31
2022-09-30T22:30:35.200Z,98249.16
2022-09-30T22:33:20.167Z,98246.47
2022-09-30T22:36:05.194Z,98253.88
2022-09-30T22:38:31.769Z,98252.53
2022-09-30T22:40:59.578Z,98233.91
2022-09-30T22:43:27.066Z,98263.78
2022-09-30T22:46:09.286Z,98260.91
2022-09-30T22:48:36.940Z,98261.00
2022-09-30T22:51:04.553Z,98260.69
2022-09-30T22:53:31.125Z,98268.22
2022-09-30T22:55:57.605Z,98271.00
2022-09-30T22:58:24.518Z,98280.16
2022-09-30T23:00:55.507Z,98273.47
2022-09-30T23:03:23.030Z,98276.56
2022-09-30T23:05:50.085Z,98282.75
2022-09-30T23:08:17.194Z,98275.00
2022-09-30T23:10:50.746Z,98283.66
2022-09-30T23:13:20.078Z,98274.38
2022-09-30T23:15:47.822Z,98277.69
2022-09-30T23:18:17.072Z,98275.22
2022-09-30T23:20:53.325Z,98269.44
2022-09-30T23:23:20.010Z,98276.56
2022-09-30T23:25:46.493Z,98274.28
2022-09-30T23:28:13.855Z,98287.06
2022-09-30T23:30:40.407Z,98280.97
2022-09-30T23:33:09.699Z,98286.97
2022-09-30T23:35:36.215Z,98290.56
2022-09-30T23:38:02.770Z,98298.31
2022-09-30T23:40:29.241Z,98302.59
2022-09-30T23:42:57.336Z,98301.78
2022-09-30T23:45:23.844Z,98311.19
2022-09-30T23:47:50.422Z,98305.06
2022-09-30T23:50:17.002Z,98304.91
2022-09-30T23:52:44.266Z,98313.66
2022-09-30T23:55:11.569Z,98312.81
2022-09-30T23:57:38.291Z,98306.13
